MOL Modern — V7VS6 — position and weather

sailwx.info

Track history (hours):
 
Tides and Currents Weather Stations Pressure Air Temp Water Temp Dewpoint Dewpoint Depression Visibility Wind Speed Wind Dir Waves Ship Positions

MOL Modern

Last reported at 2015-May-22 07:24 UTC. Time now 2015-May-24 09:16 UTC.
Position N 40°30' W 030°20'.

Length 302 m; draft 13 m.

Type: Ship (hazmat cat A). MMSI: 538004203.

Date/timePositionNaut miles runAvg speedWind from/ knotsBaromVisibWave heightAir tempDewpointWater temp
2015-May-22 07:24N 40°30' W 030°20'1818.4
2015-May-22 06:26N 40°28' W 029°57'1718.4
2015-May-22 05:32N 40°26' W 029°35'2018.5
2015-May-22 04:29N 40°23' W 029°10'1718.7
2015-May-22 03:33N 40°20' W 028°47'3718.7
2015-May-22 01:34N 40°14' W 027°59'4618.7
2015-May-21 23:07N 40°06' W 026°60'87018.3
2015-May-19 23:30N 36°21' W 009°10'2216.5
2015-May-19 22:11N 36°16' W 008°44'15317.7
2015-May-19 13:32N 35°58' W 005°36'1515.5
2015-May-19 12:33N 36°02' W 005°18'11618.0
2015-May-19 06:06N 36°20' W 002°56'1118.8
2015-May-19 05:30N 36°21' W 002°43'1819.1
2015-May-19 04:33N 36°24' W 002°20'1918.8
2015-May-19 03:33N 36°28' W 001°58'3718.4
2015-May-19 01:33N 36°36' W 001°13'1918.6
2015-May-19 00:31N 36°40' W 000°49'2018.7
2015-May-18 23:26N 36°44' W 000°24'1618.5
2015-May-18 22:33N 36°47' W 000°04'1918.6
2015-May-18 21:33N 36°51' E 000°18'1919.1
2015-May-18 20:33N 36°55' E 000°42'1918.7
2015-May-18 19:33N 36°59' E 001°04'1919.0
2015-May-18 18:33N 37°03' E 001°28'1818.0
2015-May-18 17:33N 37°06' E 001°50'1817.8
2015-May-18 16:33N 37°10' E 002°12'56217.9
2015-May-17 09:09N 36°38' E 013°54'1017.4
2015-May-17 08:33N 36°35' E 014°06'1717.6
2015-May-17 07:33N 36°30' E 014°27'1817.7
2015-May-17 06:33N 36°24' E 014°48'17018.6
2015-May-16 21:26N 35°33' E 018°07'2418.4
2015-May-16 20:08N 35°25' E 018°35'1218.5
2015-May-16 19:29N 35°21' E 018°49'1818.8
2015-May-16 18:32N 35°16' E 019°10'1919.0
2015-May-16 17:33N 35°10' E 019°32'  
Track history (hours):
 
Tides and Currents Weather Stations Pressure Air Temp Water Temp Dewpoint Dewpoint Depression Visibility Wind Speed Wind Dir Waves Ship Positions

MOL Modern

Last reported at 2015-May-22 07:24 UTC. Time now 2015-May-24 09:16 UTC.
Position N 40°30' W 030°20'.

Length 302 m; draft 13 m.

Type: Ship (hazmat cat A). MMSI: 538004203.

Date/timePositionNaut miles runAvg speedWind from/ knotsBaromVisibWave heightAir tempDewpointWater temp
2015-May-22 07:24N 40°30' W 030°20'1818.4
2015-May-22 06:26N 40°28' W 029°57'1718.4
2015-May-22 05:32N 40°26' W 029°35'2018.5
2015-May-22 04:29N 40°23' W 029°10'1718.7
2015-May-22 03:33N 40°20' W 028°47'3718.7
2015-May-22 01:34N 40°14' W 027°59'4618.7
2015-May-21 23:07N 40°06' W 026°60'87018.3
2015-May-19 23:30N 36°21' W 009°10'2216.5
2015-May-19 22:11N 36°16' W 008°44'15317.7
2015-May-19 13:32N 35°58' W 005°36'1515.5
2015-May-19 12:33N 36°02' W 005°18'11618.0
2015-May-19 06:06N 36°20' W 002°56'1118.8
2015-May-19 05:30N 36°21' W 002°43'1819.1
2015-May-19 04:33N 36°24' W 002°20'1918.8
2015-May-19 03:33N 36°28' W 001°58'3718.4
2015-May-19 01:33N 36°36' W 001°13'1918.6
2015-May-19 00:31N 36°40' W 000°49'2018.7
2015-May-18 23:26N 36°44' W 000°24'1618.5
2015-May-18 22:33N 36°47' W 000°04'1918.6
2015-May-18 21:33N 36°51' E 000°18'1919.1
2015-May-18 20:33N 36°55' E 000°42'1918.7
2015-May-18 19:33N 36°59' E 001°04'1919.0
2015-May-18 18:33N 37°03' E 001°28'1818.0
2015-May-18 17:33N 37°06' E 001°50'1817.8
2015-May-18 16:33N 37°10' E 002°12'56217.9
2015-May-17 09:09N 36°38' E 013°54'1017.4
2015-May-17 08:33N 36°35' E 014°06'1717.6
2015-May-17 07:33N 36°30' E 014°27'1817.7
2015-May-17 06:33N 36°24' E 014°48'17018.6
2015-May-16 21:26N 35°33' E 018°07'2418.4
2015-May-16 20:08N 35°25' E 018°35'1218.5
2015-May-16 19:29N 35°21' E 018°49'1818.8
2015-May-16 18:32N 35°16' E 019°10'1919.0
2015-May-16 17:33N 35°10' E 019°32'  

Dump ship's entire track history